| time (UTC) | temp C | wind direction | speed KPH | gust KPH | rain 1hr cm | rain 24hr cm | rain mn cm | humidity % | barometer mb |
| 20260505193201 | 18 | 263 | 0.0 | 11.3 | 0.00 | 0.00 | 0.00 | 57 | 1011.8 |
| 20260505191502 | 20 | 300 | 3.2 | 12.9 | 0.00 | 0.00 | 0.00 | 54 | 1011.7 |
| 20260505173007 | 23 | 293 | 6.4 | 12.9 | 0.00 | 0.00 | 0.00 | 35 | 1011.3 |
| 20260505171505 | 23 | 306 | 4.8 | 17.7 | 0.00 | 0.00 | 0.00 | 35 | 1011.3 |
| 20260505123014 | 21 | 276 | 4.8 | 16.1 | 0.00 | 0.00 | 0.00 | 38 | 1013.6 |
| 20260505113004 | 19 | 242 | 3.2 | 14.5 | 0.00 | 0.00 | 0.00 | 43 | 1014.4 |
| 20260505101515 | 18 | 355 | 1.6 | 8.0 | 0.00 | 0.00 | 0.00 | 50 | 1014.9 |
| 20260505100018 | 17 | 339 | 4.8 | 16.1 | 0.00 | 0.00 | 0.00 | 51 | 1015.0 |
| 20260505094512 | 17 | 41 | 0.0 | 14.5 | 0.00 | 0.00 | 0.00 | 53 | 1015.1 |
| 20260505093004 | 17 | 40 | 0.0 | 12.9 | 0.00 | 0.00 | 0.00 | 52 | 1015.1 |
| 20260505084523 | 16 | 290 | 1.6 | 4.8 | 0.00 | 0.00 | 0.00 | 53 | 1015.1 |
| 20260505081517 | 15 | 345 | 3.2 | 8.0 | 0.00 | 0.00 | 0.00 | 56 | 1015.2 |
| 20260505074504 | 15 | 11 | 1.6 | 6.4 | 0.00 | 0.00 | 0.00 | 59 | 1015.3 |
| 20260505054505 | 12 | 342 | 1.6 | 3.2 | 0.00 | 0.00 | 0.00 | 68 | 1014.6 |
| 20260505053004 | 12 | 340 | 0.0 | 3.2 | 0.00 | 0.00 | 0.00 | 68 | 1014.4 |
| 20260505051501 | 12 | 345 | 0.0 | 8.0 | 0.00 | 0.00 | 0.00 | 67 | 1014.3 |
| 20260505041540 | 12 | 18 | 1.6 | 4.8 | 0.00 | 0.00 | 0.00 | 68 | 1014.2 |
| 20260505034510 | 13 | 35 | 3.2 | 9.7 | 0.00 | 0.00 | 0.00 | 66 | 1014.2 |
| 20260505031509 | 13 | 353 | 1.6 | 4.8 | 0.00 | 0.00 | 0.00 | 67 | 1014.2 |
| 20260505030001 | 13 | 356 | 0.0 | 4.8 | 0.00 | 0.00 | 0.00 | 67 | 1014.2 |
| 20260505023026 | 13 | 352 | 1.6 | 4.8 | 0.00 | 0.00 | 0.00 | 68 | 1014.2 |
| 20260505020157 | 13 | 345 | 1.6 | 4.8 | 0.00 | 0.00 | 0.00 | 67 | 1014.3 |
| 20260505014513 | 13 | 349 | 3.2 | 6.4 | 0.00 | 0.00 | 0.00 | 66 | 1014.3 |
| 20260505010014 | 13 | 314 | 1.6 | 6.4 | 0.00 | 0.00 | 0.00 | 67 | 1014.7 |
| 20260505004505 | 13 | 330 | 3.2 | 8.0 | 0.00 | 0.00 | 0.00 | 67 | 1014.6 |
| 20260505003027 | 13 | 317 | 3.2 | 8.0 | 0.00 | 0.00 | 0.00 | 66 | 1014.7 |
| 20260505000002 | 14 | 306 | 3.2 | 8.0 | 0.00 | 0.00 | 0.00 | 65 | 1014.9 |
| 20260504230016 | 15 | 311 | 3.2 | 9.7 | 0.00 | 0.00 | 0.00 | 64 | 1014.9 |
| 20260504213024 | 15 | 322 | 0.0 | 3.2 | 0.00 | 0.00 | 0.00 | 74 | 1014.7 |
| 20260504204512 | 16 | 262 | 4.8 | 9.7 | 0.00 | 0.00 | 0.00 | 70 | 1014.4 |
| 20260504201505 | 16 | 275 | 6.4 | 12.9 | 0.00 | 0.00 | 0.00 | 67 | 1014.2 |
| 20260504200004 | 16 | 248 | 3.2 | 9.7 | 0.00 | 0.00 | 0.00 | 66 | 1014.1 |